Latest Weather Observations for Maningrida Airport

IDD60801

Issued at 11:31 am CST Thursday 19 January 2017 (issued every 30 minutes, with the page automatically refreshed every 10 minutes)

About weather observations | Map of weather stations | Latest weather observations for NT | Other Formats
Station Details ID: 014405 Name: MANINGRIDA AIRPORT Lat: -12.06 Lon: 134.23 Height: 28.1 m
Data from the previous 72 hours. | See also: Recent months at Maningrida Airport
Date/Time
CST
Temp
°C
App
Temp
°C
Dew
Point
°C
Rel
Hum
%
Delta-T
°C
Wind Press
QNH
hPa
Press
MSL
hPa
Rain since
9am
mm
Dir  Spd
km/h
Gust
km/h
Spd
kts
Gust
kts
19/11:30am 31.1 34.2 23.5 64 5.3 WNW 13 19 7 10 1010.0 1009.8 0.0
19/11:00am 30.8 33.7 23.2 64 5.2 W 13 20 7 11 1010.4 1010.2 0.0
19/10:30am 30.8 34.9 24.0 67 4.7 SW 9 13 5 7 1010.7 1010.5 0.0
19/10:00am 29.3 33.3 23.7 72 3.9 WSW 9 13 5 7 1011.3 1011.0 0.0
19/09:30am 28.4 32.5 23.3 74 3.5 WSW 7 11 4 6 1011.4 1011.1 0.0
19/09:00am 27.9 32.1 23.5 77 3.0 SW 7 11 4 6 1011.3 1011.0 1.0
19/08:30am 27.2 31.3 23.2 79 2.7 SW 7 11 4 6 1011.0 1010.8 1.0
19/08:00am 26.4 31.1 23.9 86 1.7 WSW 6 9 3 5 1010.8 1010.6 1.0
19/07:30am 25.3 30.3 23.9 92 1.0 SW 4 7 2 4 1010.7 1010.5 1.0
19/07:00am 24.5 29.9 23.8 96 0.5 SW 2 7 1 4 1010.4 1010.2 1.0
19/06:30am 24.4 30.1 23.7 96 0.5 CALM 0 0 0 0 1009.9 1009.7 1.0
19/06:00am 24.5 30.1 23.6 95 0.6 CALM 0 0 0 0 1009.7 1009.5 1.0
19/05:30am 24.5 30.1 23.6 95 0.6 CALM 0 0 0 0 1009.2 1009.0 1.0
19/05:00am 24.5 29.7 23.6 95 0.6 SW 2 7 1 4 1008.7 1008.5 1.0
19/04:30am 24.7 30.4 23.8 95 0.6 CALM 0 0 0 0 1008.5 1008.3 1.0
19/04:00am 24.8 30.5 23.8 94 0.7 CALM 0 0 0 0 1008.7 1008.5 1.0
19/03:30am 24.8 29.4 23.8 94 0.7 SW 6 7 3 4 1009.0 1008.8 1.0
19/03:00am 25.0 29.5 24.0 94 0.7 SW 7 9 4 5 1009.2 1009.0 1.0
19/02:30am 25.0 29.4 23.8 93 0.8 SW 7 11 4 6 1009.4 1009.2 1.0
19/02:00am 25.2 29.8 23.8 92 1.0 WSW 6 9 3 5 1009.9 1009.7 0.8
19/01:30am 25.2 29.6 23.4 90 1.2 WSW 6 9 3 5 1010.2 1010.0 0.6
19/01:00am 24.9 29.3 23.5 92 1.0 SSW 6 7 3 4 1010.7 1010.5 0.6
19/12:30am 24.9 29.4 23.7 93 0.8 SSW 6 7 3 4 1010.8 1010.6 0.6
19/12:00am 24.9 29.3 23.5 92 1.0 SSW 6 9 3 5 1011.4 1011.1 0.6
 
Date/Time
CST
Temp
°C
App
Temp
°C
Dew
Point
°C
Rel
Hum
%
Delta-T
°C
Wind Press
QNH
hPa
Press
MSL
hPa
Rain since
9am
mm
Dir  Spd
km/h
Gust
km/h
Spd
kts
Gust
kts
18/11:30pm 25.0 29.2 23.4 91 1.1 SW 7 9 4 5 1011.4 1011.1 0.6
18/11:00pm 24.9 29.1 23.1 90 1.2 SSW 6 7 3 4 1011.7 1011.4 0.6
18/10:53pm 25.1 29.9 23.5 91 1.1 SSW 4 7 2 4 1011.7 1011.4 0.6
18/10:30pm 25.0 29.2 23.4 91 1.1 SSW 7 9 4 5 1011.7 1011.4 0.6
18/10:00pm 25.2 30.8 23.6 91 1.1 CALM 0 0 0 0 1011.3 1011.0 0.6
18/09:49pm 25.5 31.4 24.1 92 1.0 CALM 0 4 0 2 1011.0 1010.8 0.6
18/09:30pm 25.6 30.6 23.8 90 1.2 W 4 7 2 4 1010.8 1010.6 0.6
18/09:00pm 25.4 29.7 23.3 88 1.4 W 6 11 3 6 1010.4 1010.2 0.6
18/08:30pm 25.2 29.2 22.7 86 1.7 W 6 7 3 4 1010.1 1009.9 0.6
18/08:00pm 25.4 29.1 22.5 84 2.0 WNW 7 11 4 6 1009.9 1009.7 0.6
18/07:30pm 26.1 29.1 22.6 81 2.4 W 11 17 6 9 1009.7 1009.5 0.6
18/07:00pm 27.5 31.3 24.7 85 2.0 NW 13 19 7 10 1010.1 1009.9 0.6
18/06:40pm 27.5 31.2 24.6 84 2.0 NNW 13 17 7 9 1010.1 1009.9 0.6
18/06:30pm 27.5 31.2 24.6 84 2.0 N 13 19 7 10 1010.0 1009.8 0.6
18/06:00pm 27.3 30.9 24.4 84 2.0 N 13 17 7 9 1009.8 1009.6 0.6
18/05:56pm 27.4 31.2 24.7 85 1.9 N 13 17 7 9 1009.7 1009.5 0.6
18/05:30pm 27.3 31.6 24.2 83 2.1 N 9 15 5 8 1009.6 1009.4 0.6
18/05:00pm 27.2 30.9 24.5 85 1.9 N 13 20 7 11 1009.4 1009.2 0.6
18/04:30pm 26.9 29.8 23.8 83 2.1 N 15 20 8 11 1009.5 1009.3 0.6
18/04:00pm 26.7 30.2 23.6 83 2.1 N 11 17 6 9 1009.3 1009.1 0.6
18/03:30pm 27.2 30.9 23.9 82 2.3 N 11 19 6 10 1009.5 1009.3 0.6
18/03:01pm 26.5 29.0 23.2 82 2.2 NNE 15 20 8 11 1009.4 1009.2 0.6
18/03:00pm 26.6 29.3 23.5 83 2.1 NNE 15 20 8 11 1009.4 1009.2 0.6
18/02:30pm 27.2 31.8 24.7 86 1.7 NNE 9 15 5 8 1009.3 1009.1 0.6
18/02:27pm 27.2 31.8 24.7 86 1.7 NE 9 13 5 7 1009.2 1009.0 0.6
18/02:00pm 26.9 31.0 24.5 87 1.7 NNE 11 15 6 8 1009.9 1009.7 0.6
18/01:30pm 26.5 30.8 24.3 88 1.5 ENE 9 13 5 7 1010.2 1010.0 0.6
18/01:00pm 26.5 31.3 24.5 89 1.4 ENE 7 9 4 5 1010.0 1009.8 0.6
18/12:30pm 25.9 30.3 23.8 88 1.4 NE 7 11 4 6 1010.4 1010.2 0.6
18/12:00pm 25.9 29.2 23.8 88 1.4 NNE 13 19 7 10 1011.0 1010.8 0.2
18/11:30am 26.1 30.6 25.2 95 0.6 NE 11 17 6 9 1011.3 1011.0 0.2
18/11:00am 26.1 29.3 24.3 90 1.2 NNE 15 22 8 12 1011.7 1011.4 0.0
18/10:30am 27.6 31.0 23.4 78 2.9 N 11 22 6 12 1011.5 1011.2 0.0
18/10:00am 28.2 32.2 23.1 74 3.5 NW 7 9 4 5 1011.5 1011.2 0.0
18/09:30am 28.3 32.5 23.4 75 3.4 WNW 7 9 4 5 1011.9 1011.6 0.0
18/09:00am 28.0 31.9 24.2 80 2.6 WNW 11 19 6 10 1011.5 1011.2 1.2
18/08:30am 27.8 34.4 25.2 86 1.8 CALM 0 0 0 0 1011.4 1011.1 1.2
18/08:00am 27.8 33.5 25.0 85 2.0 SW 4 6 2 3 1011.1 1010.9 1.2
18/07:30am 27.4 33.3 25.4 89 1.4 SW 4 6 2 3 1010.7 1010.5 1.2
18/07:00am 26.3 31.6 24.9 92 1.0 SW 6 7 3 4 1010.4 1010.2 1.2
18/06:30am 26.1 32.2 25.1 94 0.7 SSW 2 6 1 3 1009.8 1009.6 1.2
18/06:00am 26.1 31.9 25.1 94 0.7 SSW 4 6 2 3 1009.3 1009.1 1.2
18/05:30am 26.2 31.6 25.2 94 0.7 SSW 6 7 3 4 1009.1 1008.9 1.2
18/05:00am 26.0 31.3 25.0 94 0.7 SSW 6 9 3 5 1008.9 1008.7 1.2
18/04:30am 26.3 33.0 25.4 95 0.6 CALM 0 0 0 0 1008.6 1008.4 1.2
18/04:00am 26.2 32.8 25.3 95 0.6 CALM 0 0 0 0 1008.6 1008.4 1.2
18/03:30am 26.3 32.8 25.1 93 0.8 CALM 0 0 0 0 1008.7 1008.5 1.2
18/03:00am 26.3 32.2 24.7 91 1.1 W 2 7 1 4 1008.8 1008.6 0.6
18/02:30am 26.7 30.0 23.8 84 2.0 NW 13 22 7 12 1008.9 1008.7 0.2
18/02:00am 27.0 32.3 25.0 89 1.4 WSW 6 7 3 4 1008.9 1008.7 0.0
18/01:30am 27.4 32.5 24.7 85 1.9 W 6 7 3 4 1009.0 1008.8 0.0
18/01:00am 27.7 33.1 24.5 83 2.2 W 4 6 2 3 1009.3 1009.1 0.0
18/12:30am 28.2 33.0 24.2 79 2.8 WNW 6 11 3 6 1009.5 1009.3 0.0
18/12:00am 28.3 32.9 24.1 78 2.9 WNW 7 11 4 6 1009.6 1009.4 0.0
 
Date/Time
CST
Temp
°C
App
Temp
°C
Dew
Point
°C
Rel
Hum
%
Delta-T
°C
Wind Press
QNH
hPa
Press
MSL
hPa
Rain since
9am
mm
Dir  Spd
km/h
Gust
km/h
Spd
kts
Gust
kts
17/11:30pm 28.5 32.8 24.3 78 2.9 NW 9 15 5 8 1009.6 1009.4 0.0
17/11:00pm 28.5 32.6 23.9 76 3.2 WNW 9 17 5 9 1009.7 1009.5 0.0
17/10:30pm 28.8 32.4 24.4 77 3.1 NW 13 19 7 10 1009.6 1009.4 0.0
17/10:00pm 28.9 32.0 24.2 76 3.3 NW 15 26 8 14 1009.4 1009.2 0.0
17/09:30pm 29.0 30.5 23.7 73 3.7 NNW 22 32 12 17 1009.3 1009.1 0.0
17/09:00pm 29.2 30.4 23.9 73 3.7 NNW 24 30 13 16 1009.1 1008.9 0.0
17/08:30pm 29.2 31.9 24.1 74 3.5 N 17 24 9 13 1008.9 1008.7 0.0
17/08:00pm 29.2 31.8 23.9 73 3.7 N 17 20 9 11 1009.0 1008.8 0.0
17/07:30pm 29.3 32.5 23.7 72 3.9 N 13 19 7 10 1008.9 1008.7 0.0
17/07:00pm 29.4 31.8 23.6 71 4.0 N 17 22 9 12 1008.7 1008.5 0.0
17/06:30pm 29.7 31.2 22.7 66 4.8 N 19 24 10 13 1008.4 1008.2 0.0
17/06:00pm 29.8 31.6 23.3 68 4.5 N 19 28 10 15 1007.8 1007.6 0.0
17/05:30pm 30.1 31.9 23.5 67 4.6 N 20 28 11 15 1007.2 1007.0 0.0
17/05:00pm 30.2 32.3 24.1 70 4.2 N 20 28 11 15 1007.0 1006.8 0.0
17/04:30pm 30.6 31.6 23.5 66 4.9 N 24 30 13 16 1006.7 1006.5 0.0
17/04:00pm 31.0 32.5 23.1 63 5.4 N 20 28 11 15 1007.0 1006.8 0.0
17/03:30pm 31.4 33.7 24.5 67 4.8 N 20 28 11 15 1007.1 1006.9 0.0
17/03:00pm 31.4 32.8 23.5 63 5.5 N 22 30 12 16 1007.0 1006.8 0.0
17/02:30pm 31.6 34.0 24.2 65 5.2 N 19 26 10 14 1007.3 1007.1 0.0
17/02:00pm 31.1 33.3 24.2 66 4.8 N 20 28 11 15 1007.6 1007.4 0.0
17/01:30pm 31.4 34.0 24.0 65 5.2 N 17 22 9 12 1007.9 1007.7 0.0
17/01:00pm 30.7 32.8 23.1 64 5.2 N 17 24 9 13 1008.2 1008.0 0.0
17/12:30pm 31.1 34.6 24.2 66 4.8 N 13 19 7 10 1008.3 1008.1 0.0
17/12:00pm 31.0 34.2 24.4 68 4.6 N 15 20 8 11 1008.8 1008.6 0.0
17/11:30am 30.7 34.5 24.1 68 4.6 N 11 15 6 8 1008.9 1008.7 0.0
17/11:00am 30.3 34.1 23.5 67 4.7 NNW 9 15 5 8 1009.2 1009.0 0.0
17/10:30am 29.6 33.9 24.2 73 3.8 NW 9 13 5 7 1009.7 1009.5 0.0
17/10:00am 29.8 33.9 24.0 71 4.0 WNW 9 13 5 7 1010.2 1010.0 0.0
17/09:30am 29.5 33.7 23.2 69 4.3 WSW 6 11 3 6 1010.3 1010.1 0.0
17/09:00am 29.3 33.4 23.3 70 4.1 WSW 7 9 4 5 1010.1 1009.9 0.6
17/08:30am 28.1 32.5 23.5 76 3.2 WSW 6 9 3 5 1010.0 1009.8 0.6
17/08:00am 26.6 32.5 24.1 86 1.7 CALM 0 0 0 0 1009.7 1009.5 0.6
17/07:30am 25.7 31.5 23.9 90 1.2 CALM 0 0 0 0 1009.5 1009.3 0.6
17/07:00am 25.2 30.8 23.6 91 1.1 CALM 0 0 0 0 1009.0 1008.8 0.6
17/06:30am 25.0 30.4 23.2 90 1.2 CALM 0 0 0 0 1008.3 1008.1 0.6
17/06:00am 24.9 28.8 22.6 87 1.6 SW 6 7 3 4 1007.9 1007.7 0.6
17/05:30am 25.0 30.4 23.2 90 1.2 CALM 0 0 0 0 1007.3 1007.1 0.6
17/05:00am 25.0 29.9 23.1 89 1.3 SW 2 6 1 3 1006.9 1006.7 0.6
17/04:30am 24.8 29.9 22.7 88 1.4 CALM 0 6 0 3 1006.5 1006.3 0.6
17/04:00am 25.0 28.9 22.5 86 1.7 SW 6 9 3 5 1006.6 1006.4 0.6
17/03:30am 25.1 30.1 23.2 89 1.3 SW 2 6 1 3 1006.8 1006.6 0.6
17/03:00am 25.0 29.5 22.9 88 1.4 SSW 4 7 2 4 1006.7 1006.5 0.6
17/02:30am 25.1 29.6 23.0 88 1.4 SSW 4 7 2 4 1006.8 1006.6 0.6
17/02:00am 25.5 29.6 23.2 87 1.6 SW 7 9 4 5 1007.0 1006.8 0.6
17/01:30am 25.5 30.0 23.6 89 1.3 SW 6 9 3 5 1007.2 1007.0 0.6
17/01:00am 25.6 30.0 23.8 90 1.2 SW 7 13 4 7 1007.1 1006.9 0.6
17/12:30am 25.5 29.6 23.2 87 1.6 SW 7 9 4 5 1007.1 1006.9 0.6
17/12:00am 26.3 32.1 24.5 90 1.2 N 2 7 1 4 1007.3 1007.1 0.6
 
Date/Time
CST
Temp
°C
App
Temp
°C
Dew
Point
°C
Rel
Hum
%
Delta-T
°C
Wind Press
QNH
hPa
Press
MSL
hPa
Rain since
9am
mm
Dir  Spd
km/h
Gust
km/h
Spd
kts
Gust
kts
16/11:30pm 25.5 31.1 23.6 89 1.3 CALM 0 6 0 3 1007.6 1007.4 0.6
16/11:00pm 25.6 29.6 22.7 84 2.0 E 6 6 3 3 1007.6 1007.4 0.6
16/10:30pm 25.0 30.2 22.9 88 1.4 CALM 0 6 0 3 1007.5 1007.3 0.6
16/10:00pm 24.8 30.1 23.0 90 1.2 CALM 0 0 0 0 1007.3 1007.1 0.6
16/09:30pm 24.7 29.8 22.6 88 1.4 CALM 0 0 0 0 1007.4 1007.2 0.6
16/09:00pm 24.8 28.9 22.9 89 1.3 SSE 6 7 3 4 1007.6 1007.4 0.6
16/08:30pm 24.6 28.6 22.7 89 1.3 SSE 6 9 3 5 1007.7 1007.5 0.6
16/08:00pm 24.2 27.1 21.7 86 1.7 S 9 13 5 7 1007.6 1007.4 0.6
16/07:30pm 25.1 26.6 22.0 83 2.1 WSW 17 26 9 14 1008.1 1007.9 0.6
16/07:00pm 27.5 31.9 23.5 79 2.7 W 6 9 3 5 1007.4 1007.2 0.0
16/06:30pm 27.5 31.6 23.3 78 2.9 WSW 7 13 4 7 1007.1 1006.9 0.0
16/06:00pm 27.4 30.5 22.8 76 3.1 W 11 17 6 9 1006.3 1006.1 0.0
16/05:30pm 29.9 31.1 23.8 70 4.2 NNW 24 35 13 19 1005.9 1005.7 0.0
16/05:00pm 30.4 31.4 24.1 69 4.4 N 26 35 14 19 1005.2 1005.0 0.0
16/04:30pm 31.7 33.0 24.0 63 5.4 N 24 32 13 17 1004.7 1004.5 0.0
16/04:00pm 31.5 32.4 23.9 64 5.3 N 26 35 14 19 1004.5 1004.3 0.0
16/03:30pm 32.1 32.9 24.4 63 5.4 N 28 37 15 20 1004.7 1004.5 0.0
16/03:00pm 31.8 31.6 22.8 59 6.2 N 28 35 15 19 1005.1 1004.9 0.0
16/02:30pm 31.2 32.7 23.0 61 5.6 N 20 28 11 15 1005.5 1005.3 0.0
16/02:00pm 31.6 33.0 22.6 59 6.2 NNW 19 26 10 14 1005.9 1005.7 0.0
16/01:30pm 33.2 35.9 22.9 54 7.1 NW 13 24 7 13 1006.6 1006.4 0.0
16/01:00pm 31.8 34.8 23.3 60 5.9 NW 13 19 7 10 1006.9 1006.7 0.0
16/12:30pm 31.1 34.3 23.7 64 5.1 WNW 13 20 7 11 1007.4 1007.2 0.0
16/12:00pm 30.3 33.8 24.2 70 4.3 WNW 13 20 7 11 1007.9 1007.7 0.0

Other Formats:

Comma delimited format used in spreadsheet applications
http://www.bom.gov.au/fwo/IDD60801/IDD60801.95142.axf

JavaScript Object Notation format (JSON) in row-major order
http://www.bom.gov.au/fwo/IDD60801/IDD60801.95142.json